Time;durP1;ratioP1;P1;durP2;ratioP2;P2;SDS_P1;SDS_P2;PMS_P1;PMS_P2;Temp;Humidity;BMP_temperature;BMP_pressure;BME280_temperature;BME280_humidity;BME280_pressure;Samples;Min_cycle;Max_cycle;Signal;HPM_P1;HPM_P2
2023/06/15 00:00:13;;;;;;;10.77;7.57;;;13.70;99.90;;;;;;5109609;28;20023;-78
2023/06/15 00:02:40;;;;;;;13.80;7.80;;;13.80;99.90;;;;;;5110384;28;20024;-78
2023/06/15 00:05:07;;;;;;;12.73;8.20;;;13.80;99.90;;;;;;5109342;28;20665;-78
2023/06/15 00:07:33;;;;;;;14.55;7.95;;;13.90;99.90;;;;;;5070213;28;20056;-77
2023/06/15 00:09:58;;;;;;;12.50;7.72;;;13.90;99.90;;;;;;5086915;28;20071;-77
2023/06/15 00:12:24;;;;;;;12.25;8.18;;;14.00;99.90;;;;;;5115969;27;20024;-77
2023/06/15 00:14:49;;;;;;;14.60;8.15;;;14.10;99.90;;;;;;5086831;28;20070;-77
2023/06/15 00:17:15;;;;;;;14.30;8.15;;;14.00;99.90;;;;;;5112945;27;20052;-78
2023/06/15 00:19:41;;;;;;;13.77;7.88;;;14.00;99.90;;;;;;5073435;28;20485;-77
2023/06/15 00:22:09;;;;;;;14.25;8.55;;;14.00;99.90;;;;;;5073896;28;20047;-77
2023/06/15 00:24:35;;;;;;;12.60;7.85;;;14.00;99.90;;;;;;5089218;28;20028;-77
2023/06/15 00:27:01;;;;;;;12.68;7.63;;;14.10;99.90;;;;;;5089552;28;20464;-77
2023/06/15 00:29:26;;;;;;;12.60;8.27;;;14.20;99.90;;;;;;5088937;28;20024;-77
2023/06/15 00:31:52;;;;;;;14.65;8.02;;;14.20;99.90;;;;;;5088408;28;20024;-77
2023/06/15 00:34:17;;;;;;;13.73;7.75;;;14.20;99.90;;;;;;5100491;28;20055;-77
2023/06/15 00:36:43;;;;;;;12.07;8.57;;;14.30;99.90;;;;;;5077867;28;20099;-77
2023/06/15 00:39:09;;;;;;;12.50;8.00;;;14.20;99.90;;;;;;5087004;28;20024;-78
2023/06/15 00:41:42;;;;;;;14.00;8.23;;;14.20;99.90;;;;;;5097860;28;20035;-78
2023/06/15 00:44:08;;;;;;;13.32;8.63;;;14.20;99.90;;;;;;5086546;28;20036;-77
2023/06/15 00:46:34;;;;;;;13.02;8.15;;;14.10;99.90;;;;;;5085143;28;20052;-77
2023/06/15 00:49:00;;;;;;;14.75;7.88;;;14.10;99.90;;;;;;5080337;28;20116;-77
2023/06/15 00:51:27;;;;;;;13.23;8.63;;;14.10;99.90;;;;;;5079724;28;20562;-77
2023/06/15 00:53:52;;;;;;;15.40;8.40;;;14.10;99.90;;;;;;5080318;28;20563;-77
2023/06/15 00:56:18;;;;;;;13.43;7.97;;;14.00;99.90;;;;;;5069983;28;20040;-77
2023/06/15 00:58:44;;;;;;;12.45;8.35;;;13.90;99.90;;;;;;5087916;28;20027;-77
2023/06/15 01:01:10;;;;;;;13.02;7.80;;;13.90;99.90;;;;;;5086278;28;20093;-78
2023/06/15 01:03:36;;;;;;;12.05;7.85;;;13.90;99.90;;;;;;5089042;28;20065;-77
2023/06/15 01:06:12;;;;;;;14.75;8.52;;;13.90;99.90;;;;;;5088178;28;20032;-77
2023/06/15 01:08:40;;;;;;;12.75;7.90;;;13.90;99.90;;;;;;5124831;27;20028;-77
2023/06/15 01:11:06;;;;;;;13.38;8.32;;;13.80;99.90;;;;;;5087828;28;20759;-78
2023/06/15 01:13:34;;;;;;;13.23;8.32;;;13.70;99.90;;;;;;5086891;28;20123;-78
2023/06/15 01:16:02;;;;;;;13.13;8.68;;;13.70;99.90;;;;;;5076716;28;20029;-77
2023/06/15 01:18:29;;;;;;;15.43;8.68;;;13.60;99.90;;;;;;5091401;28;20028;-78
2023/06/15 01:20:56;;;;;;;14.60;8.50;;;13.60;99.90;;;;;;5090698;28;20035;-78
2023/06/15 01:23:31;;;;;;;14.27;8.63;;;13.40;99.90;;;;;;5091570;28;20043;-77
2023/06/15 01:26:12;;;;;;;14.57;8.07;;;13.20;99.90;;;;;;5085115;28;20043;-78
2023/06/15 01:28:45;;;;;;;12.55;8.57;;;13.20;99.90;;;;;;5086803;28;20048;-77
2023/06/15 01:31:12;;;;;;;13.60;8.75;;;13.20;99.90;;;;;;5069925;28;20049;-78
2023/06/15 01:33:48;;;;;;;14.25;8.38;;;13.20;99.90;;;;;;5101851;28;20036;-77
2023/06/15 01:36:15;;;;;;;15.93;8.88;;;13.20;99.90;;;;;;5076402;28;20035;-77
2023/06/15 01:38:42;;;;;;;12.75;8.80;;;13.20;99.90;;;;;;5086013;28;20035;-78
2023/06/15 01:41:08;;;;;;;17.10;8.23;;;13.20;99.90;;;;;;5086462;28;20027;-78
2023/06/15 01:43:37;;;;;;;16.90;8.82;;;13.20;99.90;;;;;;5108421;28;20023;-77
2023/06/15 01:46:04;;;;;;;16.25;8.45;;;13.30;99.90;;;;;;5092256;28;20488;-77
2023/06/15 01:48:30;;;;;;;11.93;8.02;;;13.30;99.90;;;;;;5077975;28;20113;-77
2023/06/15 01:50:56;;;;;;;11.80;8.15;;;13.20;99.90;;;;;;5072418;28;20060;-77
2023/06/15 01:53:22;;;;;;;13.02;8.35;;;13.30;99.90;;;;;;5078486;28;20039;-77
2023/06/15 01:55:49;;;;;;;16.73;8.57;;;13.30;99.90;;;;;;5092540;28;20032;-77
2023/06/15 01:58:15;;;;;;;15.38;8.30;;;13.20;99.90;;;;;;5101465;28;20349;-78
2023/06/15 02:00:44;;;;;;;14.30;8.43;;;13.20;99.90;;;;;;5111424;28;20023;-77
2023/06/15 02:03:13;;;;;;;12.63;8.30;;;13.30;99.90;;;;;;5093859;28;20031;-78
2023/06/15 02:05:40;;;;;;;12.60;8.20;;;13.30;99.90;;;;;;5094513;28;20428;-77
2023/06/15 02:08:10;;;;;;;14.40;8.52;;;13.30;99.90;;;;;;5111219;28;20384;-78
2023/06/15 02:10:37;;;;;;;14.95;8.98;;;13.30;99.90;;;;;;5095416;27;20031;-78
2023/06/15 02:13:03;;;;;;;13.90;8.27;;;13.20;99.90;;;;;;5092227;28;20039;-78
2023/06/15 02:15:29;;;;;;;14.27;8.60;;;13.10;99.90;;;;;;5103326;28;20031;-77
2023/06/15 02:18:00;;;;;;;13.23;8.38;;;13.00;99.90;;;;;;5112312;28;20032;-77
2023/06/15 02:20:27;;;;;;;12.35;8.13;;;12.90;99.90;;;;;;5111798;28;20497;-77
2023/06/15 02:22:54;;;;;;;13.00;8.52;;;12.80;99.90;;;;;;5085755;28;20032;-77
2023/06/15 02:25:19;;;;;;;13.32;8.68;;;12.80;99.90;;;;;;5089982;28;20424;-77
2023/06/15 02:27:45;;;;;;;12.90;8.70;;;12.70;99.90;;;;;;5092036;28;20028;-77
2023/06/15 02:30:12;;;;;;;14.63;8.90;;;12.60;99.90;;;;;;5091813;28;20463;-77
2023/06/15 02:32:39;;;;;;;12.77;8.90;;;12.50;99.90;;;;;;5102967;28;20035;-77
2023/06/15 02:35:10;;;;;;;14.75;8.50;;;12.50;99.90;;;;;;5112225;28;20057;-77
2023/06/15 02:37:36;;;;;;;;;;;12.40;99.90;;;;;;5107285;28;21293;-77
2023/06/15 02:40:06;;;;;;;12.85;8.05;;;12.40;99.90;;;;;;5081793;28;19909;-77
2023/06/15 02:42:33;;;;;;;18.27;9.07;;;12.40;99.90;;;;;;5090671;28;20669;-77
2023/06/15 02:44:59;;;;;;;15.35;8.88;;;12.30;99.90;;;;;;5091704;28;20121;-77
2023/06/15 02:47:24;;;;;;;16.83;9.65;;;12.30;99.90;;;;;;5089038;28;20060;-77
2023/06/15 02:49:50;;;;;;;13.27;9.20;;;12.30;99.90;;;;;;5088473;28;20028;-77
2023/06/15 02:52:16;;;;;;;13.57;8.80;;;12.20;99.90;;;;;;5074272;28;20031;-77
2023/06/15 02:54:42;;;;;;;15.60;9.48;;;12.20;99.90;;;;;;5091391;28;20067;-77
2023/06/15 02:57:08;;;;;;;13.48;8.82;;;12.10;99.90;;;;;;5090515;28;20032;-77
2023/06/15 02:59:35;;;;;;;15.30;9.45;;;11.90;99.90;;;;;;5088550;28;20109;-77
2023/06/15 03:02:02;;;;;;;15.27;9.45;;;11.90;99.90;;;;;;5089517;28;20020;-78
2023/06/15 03:04:28;;;;;;;14.77;10.10;;;11.90;99.90;;;;;;5090390;28;20484;-77
2023/06/15 03:06:57;;;;;;;12.98;9.02;;;11.90;99.90;;;;;;5100924;28;20424;-78
2023/06/15 03:09:23;;;;;;;14.32;9.20;;;11.70;99.90;;;;;;5089519;28;20063;-77
2023/06/15 03:11:50;;;;;;;15.48;9.30;;;11.70;99.90;;;;;;5089616;28;20436;-78
2023/06/15 03:14:19;;;;;;;13.73;9.23;;;11.80;99.90;;;;;;5089559;28;20028;-78
2023/06/15 03:16:47;;;;;;;15.88;9.90;;;11.90;99.90;;;;;;5090334;28;20034;-78
2023/06/15 03:19:15;;;;;;;17.98;9.77;;;11.80;99.90;;;;;;5072195;28;20742;-77
2023/06/15 03:21:41;;;;;;;13.70;9.07;;;11.90;99.90;;;;;;5070632;28;20028;-78
2023/06/15 03:24:08;;;;;;;16.20;9.88;;;12.00;99.90;;;;;;5090896;28;20480;-78
2023/06/15 03:26:36;;;;;;;14.35;9.70;;;12.00;99.90;;;;;;5089017;28;20093;-77
2023/06/15 03:29:02;;;;;;;15.25;9.68;;;11.90;99.90;;;;;;5088650;28;20032;-77
2023/06/15 03:31:33;;;;;;;14.75;10.30;;;11.90;99.90;;;;;;5087043;28;20077;-77
2023/06/15 03:34:02;;;;;;;20.63;10.73;;;11.80;99.90;;;;;;5089669;28;20039;-77
2023/06/15 03:36:29;;;;;;;20.67;10.60;;;11.80;99.90;;;;;;5095295;28;20036;-78
2023/06/15 03:38:58;;;;;;;13.90;9.48;;;11.90;99.90;;;;;;5087925;28;20028;-78
2023/06/15 03:41:28;;;;;;;14.93;10.15;;;11.80;99.90;;;;;;5121846;27;20031;-78
2023/06/15 03:43:53;;;;;;;15.50;10.02;;;11.80;99.90;;;;;;5088559;28;20038;-78
2023/06/15 03:46:19;;;;;;;15.32;9.43;;;11.70;99.90;;;;;;5088196;28;20126;-78
2023/06/15 03:48:45;;;;;;;14.80;9.40;;;11.70;99.90;;;;;;5070750;28;20039;-77
2023/06/15 03:51:12;;;;;;;17.38;9.75;;;11.70;99.90;;;;;;5089120;28;20047;-77
2023/06/15 03:53:41;;;;;;;18.98;11.10;;;11.60;99.90;;;;;;5078805;28;20344;-78
2023/06/15 03:56:06;;;;;;;18.85;11.90;;;11.50;99.90;;;;;;5088679;28;20043;-77
2023/06/15 03:58:32;;;;;;;20.08;12.05;;;11.50;99.90;;;;;;5087487;28;20480;-78
2023/06/15 04:00:57;;;;;;;20.88;12.23;;;11.40;99.90;;;;;;5090730;28;20035;-77
2023/06/15 04:03:23;;;;;;;24.00;11.77;;;11.40;99.90;;;;;;5086884;28;20587;-79
2023/06/15 04:05:49;;;;;;;21.83;11.50;;;11.40;99.90;;;;;;5088925;28;20082;-78
2023/06/15 04:08:14;;;;;;;20.05;11.35;;;11.40;99.90;;;;;;5088355;28;20024;-77
2023/06/15 04:10:40;;;;;;;21.33;11.90;;;11.50;99.90;;;;;;5088744;28;20042;-78
2023/06/15 04:13:06;;;;;;;22.25;12.45;;;11.60;99.90;;;;;;5090319;28;20512;-78
2023/06/15 04:15:32;;;;;;;21.52;12.40;;;11.70;99.90;;;;;;5090904;28;20448;-78
2023/06/15 04:18:00;;;;;;;18.63;11.55;;;11.80;99.90;;;;;;5089600;28;20039;-78
2023/06/15 04:20:28;;;;;;;17.58;10.75;;;11.90;99.90;;;;;;5086601;28;20027;-78
2023/06/15 04:22:56;;;;;;;18.20;11.20;;;11.90;99.90;;;;;;5080861;28;20036;-77
2023/06/15 04:25:21;;;;;;;18.00;11.05;;;11.90;99.90;;;;;;5079618;28;20032;-78
2023/06/15 04:27:47;;;;;;;16.75;10.73;;;11.90;99.90;;;;;;5084708;28;20032;-78
2023/06/15 04:30:16;;;;;;;16.27;11.00;;;11.90;99.90;;;;;;5073483;28;20032;-78
2023/06/15 04:32:43;;;;;;;19.75;10.93;;;12.00;99.90;;;;;;5080915;28;20181;-77
2023/06/15 04:35:09;;;;;;;15.70;10.45;;;12.10;99.90;;;;;;5076022;28;20028;-77
2023/06/15 04:37:39;;;;;;;16.08;9.82;;;12.30;99.90;;;;;;5079048;28;20416;-77
2023/06/15 04:40:07;;;;;;;16.80;9.88;;;12.40;99.90;;;;;;5083250;28;20052;-77
2023/06/15 04:42:33;;;;;;;17.23;10.32;;;12.50;99.90;;;;;;5077601;28;20029;-78
2023/06/15 04:44:59;;;;;;;17.55;9.98;;;12.60;99.90;;;;;;5093798;28;20162;-77
2023/06/15 04:47:25;;;;;;;19.08;10.43;;;12.70;99.90;;;;;;5072556;28;20044;-78
2023/06/15 04:49:51;;;;;;;14.68;9.77;;;12.70;99.90;;;;;;5072818;28;20024;-77
2023/06/15 04:52:17;;;;;;;15.02;10.10;;;12.90;99.90;;;;;;5085489;28;20046;-78
2023/06/15 04:54:43;;;;;;;13.85;9.35;;;13.10;99.90;;;;;;5069465;28;20044;-78
2023/06/15 04:57:08;;;;;;;17.85;9.65;;;13.10;99.90;;;;;;5111698;27;20035;-78
2023/06/15 04:59:34;;;;;;;14.52;9.45;;;13.20;99.90;;;;;;5080834;28;20035;-78
2023/06/15 05:02:00;;;;;;;12.88;9.00;;;13.30;99.90;;;;;;5068257;28;20028;-78
2023/06/15 05:04:26;;;;;;;16.40;9.82;;;13.50;99.90;;;;;;5069144;28;20044;-77
2023/06/15 05:06:51;;;;;;;19.85;9.20;;;13.70;99.90;;;;;;5086084;28;20121;-78
2023/06/15 05:09:18;;;;;;;13.70;9.35;;;13.90;99.90;;;;;;5080565;28;20028;-77
2023/06/15 05:11:43;;;;;;;13.20;9.52;;;14.10;99.90;;;;;;5086129;28;20039;-77
2023/06/15 05:14:09;;;;;;;14.75;10.07;;;14.20;99.90;;;;;;5084981;28;20036;-76
2023/06/15 05:16:34;;;;;;;17.10;10.25;;;14.30;99.90;;;;;;5082794;28;20101;-75
2023/06/15 05:19:00;;;;;;;15.07;9.55;;;14.30;99.90;;;;;;5083837;28;20036;-72
2023/06/15 05:21:26;;;;;;;18.25;9.40;;;14.30;99.90;;;;;;5075670;28;20101;-73
2023/06/15 05:23:51;;;;;;;14.05;9.15;;;14.40;99.90;;;;;;5120575;27;20075;-72
2023/06/15 05:26:17;;;;;;;14.45;9.48;;;14.50;99.90;;;;;;5089877;28;20801;-72
2023/06/15 05:28:43;;;;;;;14.18;9.90;;;14.60;99.90;;;;;;5110995;27;20107;-72
2023/06/15 05:31:09;;;;;;;16.08;9.65;;;14.80;99.90;;;;;;5089496;28;20028;-72
2023/06/15 05:33:36;;;;;;;16.50;9.50;;;15.10;99.90;;;;;;5101144;28;20028;-72
2023/06/15 05:36:02;;;;;;;14.02;9.38;;;15.30;99.90;;;;;;5090335;28;20105;-72
2023/06/15 05:38:28;;;;;;;12.63;9.07;;;15.40;99.90;;;;;;5079080;28;20039;-72
2023/06/15 05:40:53;;;;;;;18.50;9.82;;;15.50;99.90;;;;;;5084400;28;20048;-72
2023/06/15 05:43:19;;;;;;;16.55;9.85;;;15.50;99.90;;;;;;5082891;28;20062;-71
2023/06/15 05:45:47;;;;;;;17.55;10.10;;;15.60;99.90;;;;;;5089290;28;20032;-72
2023/06/15 05:48:13;;;;;;;14.07;9.88;;;15.60;99.90;;;;;;5094644;28;20063;-73
2023/06/15 05:50:39;;;;;;;14.90;10.15;;;15.70;99.90;;;;;;5090631;28;20028;-73
2023/06/15 05:53:05;;;;;;;16.70;10.48;;;15.70;99.90;;;;;;5088930;28;20032;-73
2023/06/15 05:55:31;;;;;;;17.58;10.90;;;15.80;99.90;;;;;;5086727;28;20100;-73
2023/06/15 05:57:57;;;;;;;17.33;10.63;;;15.90;99.90;;;;;;5092082;28;20043;-74
2023/06/15 06:00:25;;;;;;;16.15;10.32;;;15.90;99.90;;;;;;5087546;28;20032;-73
2023/06/15 06:02:52;;;;;;;19.70;10.85;;;15.90;99.90;;;;;;5095588;28;20036;-74
2023/06/15 06:05:18;;;;;;;20.90;10.73;;;16.10;99.90;;;;;;5080704;28;20063;-73
2023/06/15 06:07:46;;;;;;;20.95;10.85;;;16.10;99.90;;;;;;5086411;28;20384;-74
2023/06/15 06:10:12;;;;;;;18.92;10.40;;;16.20;99.90;;;;;;5088200;28;20111;-73
2023/06/15 06:12:38;;;;;;;15.90;10.38;;;16.20;99.90;;;;;;5078733;28;20478;-73
2023/06/15 06:15:04;;;;;;;18.00;9.75;;;16.20;99.90;;;;;;5080848;28;20044;-73
2023/06/15 06:17:30;;;;;;;15.43;10.20;;;16.40;99.90;;;;;;5086609;28;20036;-74
2023/06/15 06:19:56;;;;;;;14.65;10.00;;;16.60;99.90;;;;;;5077452;28;20392;-73
2023/06/15 06:22:22;;;;;;;13.38;9.70;;;16.80;99.90;;;;;;5083577;28;20389;-73
2023/06/15 06:24:47;;;;;;;20.50;10.02;;;17.10;99.90;;;;;;5089351;28;20036;-73
2023/06/15 06:27:13;;;;;;;13.85;10.00;;;17.30;99.90;;;;;;5087064;28;20483;-73
2023/06/15 06:29:40;;;;;;;14.60;9.27;;;17.30;99.90;;;;;;5079107;28;20047;-73
2023/06/15 06:32:07;;;;;;;15.52;9.77;;;17.40;99.90;;;;;;5091655;28;20020;-73
2023/06/15 06:34:35;;;;;;;15.40;9.90;;;17.50;99.90;;;;;;5082782;28;20493;-73
2023/06/15 06:37:02;;;;;;;15.35;9.63;;;17.70;99.90;;;;;;5079221;28;20056;-73
2023/06/15 06:39:28;;;;;;;16.90;10.07;;;17.80;99.90;;;;;;5074016;28;20115;-73
2023/06/15 06:41:54;;;;;;;13.73;9.20;;;18.10;99.90;;;;;;5088008;28;20115;-73
2023/06/15 06:44:19;;;;;;;12.73;9.40;;;18.30;99.90;;;;;;5080428;28;20432;-73
2023/06/15 06:46:45;;;;;;;17.60;9.68;;;18.40;99.90;;;;;;5097164;28;20665;-73
2023/06/15 06:49:11;;;;;;;13.75;9.25;;;18.60;99.90;;;;;;5105802;28;20040;-72
2023/06/15 06:51:37;;;;;;;15.43;9.20;;;18.60;99.90;;;;;;5079488;28;20036;-76
2023/06/15 06:54:03;;;;;;;11.85;9.13;;;18.70;99.90;;;;;;5079729;28;20036;-79
2023/06/15 06:56:28;;;;;;;12.98;9.02;;;18.90;99.90;;;;;;5080293;28;20055;-72
2023/06/15 06:58:54;;;;;;;15.35;9.43;;;19.10;99.90;;;;;;5071334;28;20050;-73
2023/06/15 07:01:20;;;;;;;12.77;8.68;;;19.10;99.00;;;;;;5081003;28;20080;-74
2023/06/15 07:03:46;;;;;;;12.98;8.40;;;19.20;99.90;;;;;;5077641;28;20177;-75
2023/06/15 07:06:11;;;;;;;14.85;8.40;;;19.40;99.80;;;;;;5082071;28;20024;-75
2023/06/15 07:08:37;;;;;;;11.43;8.07;;;19.70;99.90;;;;;;5080676;28;20465;-75
2023/06/15 07:11:02;;;;;;;12.02;8.32;;;19.90;99.60;;;;;;5081209;28;20028;-75
2023/06/15 07:13:28;;;;;;;11.95;7.95;;;20.00;98.80;;;;;;5088948;28;20035;-73
2023/06/15 07:15:56;;;;;;;12.25;8.52;;;20.20;98.10;;;;;;5089708;28;20036;-73
2023/06/15 07:18:22;;;;;;;13.15;7.93;;;20.10;97.30;;;;;;5083162;28;20051;-73
2023/06/15 07:20:53;;;;;;;14.30;9.10;;;20.00;97.50;;;;;;5068854;28;20218;-73
2023/06/15 07:23:22;;;;;;;10.70;8.38;;;20.10;96.80;;;;;;5077057;28;20145;-73
2023/06/15 07:25:50;;;;;;;11.27;8.40;;;20.20;97.40;;;;;;5089960;28;20024;-72
2023/06/15 07:28:16;;;;;;;15.30;8.45;;;20.50;96.50;;;;;;5090848;28;20258;-73
2023/06/15 07:30:43;;;;;;;12.27;8.43;;;20.30;95.90;;;;;;5089964;28;20036;-72
2023/06/15 07:33:09;;;;;;;12.32;7.95;;;20.30;95.80;;;;;;5090403;28;20032;-72
2023/06/15 07:35:35;;;;;;;10.93;7.70;;;20.40;96.30;;;;;;5089692;28;20032;-72
2023/06/15 07:38:00;;;;;;;14.32;8.32;;;20.70;95.80;;;;;;5090606;28;20461;-73
2023/06/15 07:40:26;;;;;;;10.65;8.18;;;20.90;94.90;;;;;;5123167;27;20032;-72
2023/06/15 07:42:52;;;;;;;15.00;8.63;;;20.80;95.50;;;;;;5089760;28;20495;-73
2023/06/15 07:45:17;;;;;;;11.32;8.13;;;20.90;95.00;;;;;;5090216;28;20036;-72
2023/06/15 07:47:43;;;;;;;12.25;8.20;;;21.00;95.20;;;;;;5088940;28;20059;-72
2023/06/15 07:50:09;;;;;;;13.98;8.60;;;21.10;94.40;;;;;;5090251;28;20479;-72
2023/06/15 07:52:35;;;;;;;12.65;8.35;;;20.90;94.10;;;;;;5089607;28;20365;-71
2023/06/15 07:55:00;;;;;;;10.20;7.80;;;21.00;94.40;;;;;;5090350;28;20036;-72
2023/06/15 07:57:26;;;;;;;12.25;7.68;;;21.10;94.80;;;;;;5090567;28;20065;-72
2023/06/15 07:59:52;;;;;;;10.68;7.78;;;21.20;93.50;;;;;;5089565;28;20020;-72
2023/06/15 08:02:18;;;;;;;11.57;8.10;;;21.20;93.60;;;;;;5090015;28;20053;-72
2023/06/15 08:04:44;;;;;;;13.82;7.97;;;21.50;93.40;;;;;;5089108;28;20070;-71
2023/06/15 08:07:09;;;;;;;10.80;7.03;;;21.60;92.90;;;;;;5089733;28;20020;-72
2023/06/15 08:09:35;;;;;;;11.18;7.93;;;21.80;93.30;;;;;;5088784;28;20527;-72
2023/06/15 08:12:01;;;;;;;11.38;7.63;;;21.90;92.10;;;;;;5089843;28;20110;-72
2023/06/15 08:14:27;;;;;;;9.82;7.22;;;21.90;91.40;;;;;;5089356;28;20727;-72
2023/06/15 08:16:53;;;;;;;13.88;7.65;;;21.90;91.20;;;;;;5088575;28;20133;-72
2023/06/15 08:19:18;;;;;;;13.55;7.57;;;22.00;91.10;;;;;;5089699;28;20035;-72
2023/06/15 08:21:44;;;;;;;12.27;7.38;;;22.00;91.50;;;;;;5088754;28;20028;-72
2023/06/15 08:24:10;;;;;;;10.18;7.05;;;22.10;90.30;;;;;;5089617;28;20036;-72
2023/06/15 08:26:35;;;;;;;8.38;6.28;;;21.80;89.40;;;;;;5121501;27;20431;-72
2023/06/15 08:29:02;;;;;;;10.52;6.80;;;22.00;90.20;;;;;;5089534;28;20035;-73
2023/06/15 08:31:29;;;;;;;9.48;6.22;;;22.20;88.80;;;;;;5089703;28;20028;-72
2023/06/15 08:33:55;;;;;;;11.10;6.30;;;22.20;88.30;;;;;;5088456;28;20093;-72
2023/06/15 08:36:22;;;;;;;9.77;6.32;;;22.20;86.60;;;;;;5089673;28;20453;-73
2023/06/15 08:38:48;;;;;;;10.65;6.80;;;22.10;86.90;;;;;;5121321;27;20364;-72
2023/06/15 08:41:14;;;;;;;8.32;6.07;;;22.30;86.80;;;;;;5089535;28;20036;-72
2023/06/15 08:43:45;;;;;;;14.45;6.30;;;22.50;85.60;;;;;;5088629;28;20437;-72
2023/06/15 08:46:12;;;;;;;9.32;6.28;;;22.50;85.10;;;;;;5089665;28;20432;-72
2023/06/15 08:48:38;;;;;;;15.00;6.55;;;22.50;83.10;;;;;;5088472;28;20047;-72
2023/06/15 08:51:06;;;;;;;8.15;6.50;;;22.20;83.60;;;;;;5089401;28;20023;-73
2023/06/15 08:53:33;;;;;;;9.77;6.10;;;22.30;85.70;;;;;;5089256;28;20460;-72
2023/06/15 08:55:59;;;;;;;11.00;6.30;;;22.40;84.10;;;;;;5087723;28;20028;-72
2023/06/15 08:58:25;;;;;;;9.15;6.47;;;22.60;84.00;;;;;;5088560;28;20460;-73
2023/06/15 09:00:53;;;;;;;19.45;6.20;;;23.00;83.30;;;;;;5088300;28;20020;-72
2023/06/15 09:03:20;;;;;;;10.48;6.30;;;23.20;82.00;;;;;;5089245;28;20032;-72
2023/06/15 09:05:46;;;;;;;8.38;6.28;;;23.20;79.10;;;;;;5088428;28;20028;-72
2023/06/15 09:08:12;;;;;;;12.77;6.78;;;23.20;78.40;;;;;;5089203;28;20396;-72
2023/06/15 09:10:38;;;;;;;9.63;6.43;;;22.90;77.70;;;;;;5120975;27;20082;-72
2023/06/15 09:13:04;;;;;;;10.32;6.25;;;22.80;80.00;;;;;;5089064;28;20058;-72
2023/06/15 09:15:30;;;;;;;10.18;6.30;;;23.10;77.50;;;;;;5089055;28;20032;-72
2023/06/15 09:17:58;;;;;;;11.00;6.07;;;23.40;76.80;;;;;;5088210;28;20160;-72
2023/06/15 09:20:31;;;;;;;8.93;5.53;;;23.30;75.90;;;;;;5089310;28;20035;-73
2023/06/15 09:23:02;;;;;;;8.45;6.55;;;23.40;74.60;;;;;;5087004;28;20016;-72
2023/06/15 09:25:30;;;;;;;7.90;6.15;;;23.70;74.60;;;;;;5089033;28;20052;-72
2023/06/15 09:27:58;;;;;;;8.63;6.20;;;23.80;75.80;;;;;;5088106;28;20091;-72
2023/06/15 09:30:39;;;;;;;7.78;5.55;;;23.90;72.10;;;;;;5088738;28;20476;-72
2023/06/15 09:33:15;;;;;;;7.90;5.78;;;24.00;71.70;;;;;;5088579;28;20157;-72
2023/06/15 09:35:59;;;;;;;7.72;5.78;;;24.30;71.10;;;;;;5088143;28;20036;-72
2023/06/15 09:38:28;;;;;;;7.72;6.20;;;24.50;67.80;;;;;;5088890;28;20016;-73
2023/06/15 09:40:54;;;;;;;15.75;6.20;;;24.50;67.20;;;;;;5088229;28;20106;-72
2023/06/15 09:43:20;;;;;;;10.73;6.20;;;24.40;67.30;;;;;;5088805;28;20036;-72
2023/06/15 09:45:51;;;;;;;7.53;5.35;;;24.60;68.60;;;;;;5087481;28;20031;-72
2023/06/15 09:48:16;;;;;;;8.02;5.72;;;24.80;65.20;;;;;;5088598;28;20036;-72
2023/06/15 09:50:42;;;;;;;6.72;5.43;;;25.00;67.60;;;;;;5087804;28;20039;-72
2023/06/15 09:53:11;;;;;;;7.95;5.85;;;25.00;64.70;;;;;;5088762;28;20024;-72
2023/06/15 09:55:43;;;;;;;9.18;6.22;;;24.70;66.60;;;;;;5088114;28;20207;-71
2023/06/15 09:58:10;;;;;;;9.68;6.00;;;24.70;64.70;;;;;;5088791;28;20031;-72
2023/06/15 10:00:36;;;;;;;7.97;5.95;;;24.30;68.10;;;;;;5088220;28;20103;-72
2023/06/15 10:03:03;;;;;;;8.95;6.45;;;23.80;69.00;;;;;;5088082;28;20153;-72
2023/06/15 10:05:32;;;;;;;10.88;6.32;;;23.70;73.50;;;;;;5088694;28;20048;-72
2023/06/15 10:07:58;;;;;;;7.72;6.40;;;23.60;74.60;;;;;;5120647;28;20710;-72
2023/06/15 10:10:24;;;;;;;8.20;6.03;;;23.60;74.60;;;;;;5091824;28;20028;-72
2023/06/15 10:12:55;;;;;;;9.13;5.88;;;23.50;76.10;;;;;;5091463;28;20376;-72
2023/06/15 10:15:22;;;;;;;;;;;23.20;70.00;;;;;;5092847;28;20043;-72
2023/06/15 10:17:52;;;;;;;11.05;6.95;;;23.10;74.50;;;;;;5091218;28;19959;-72
2023/06/15 10:20:21;;;;;;;7.53;6.15;;;23.00;77.70;;;;;;5092122;28;20038;-72
2023/06/15 10:22:50;;;;;;;9.82;6.47;;;23.10;78.10;;;;;;5091097;28;20036;-72
2023/06/15 10:25:18;;;;;;;10.98;6.50;;;23.70;70.80;;;;;;5091984;28;20575;-72
2023/06/15 10:27:47;;;;;;;8.25;6.22;;;24.10;69.20;;;;;;5091030;28;20024;-71
2023/06/15 10:30:32;;;;;;;8.65;6.15;;;23.70;67.10;;;;;;5091894;28;20063;-72
2023/06/15 10:33:24;;;;;;;8.32;5.80;;;23.40;68.30;;;;;;5123744;27;20671;-72
2023/06/15 10:36:22;;;;;;;7.40;5.47;;;23.20;67.60;;;;;;5091141;28;20117;-72
2023/06/15 10:38:56;;;;;;;9.93;5.57;;;23.50;68.70;;;;;;5090193;28;20435;-72
2023/06/15 10:41:22;;;;;;;6.82;5.10;;;24.20;64.80;;;;;;5124710;27;20024;-72
2023/06/15 10:44:06;;;;;;;8.35;5.05;;;24.40;64.00;;;;;;5090924;28;20028;-72
2023/06/15 10:46:36;;;;;;;6.75;5.00;;;24.30;62.70;;;;;;5091538;28;20052;-72
2023/06/15 10:49:10;;;;;;;7.40;5.40;;;24.00;63.10;;;;;;5090617;28;20123;-72
2023/06/15 10:51:51;;;;;;;8.98;5.75;;;24.60;65.40;;;;;;5091503;28;20055;-72
2023/06/15 10:54:25;;;;;;;7.10;5.63;;;25.30;62.20;;;;;;5091211;28;20841;-73
2023/06/15 10:56:58;;;;;;;8.45;5.75;;;25.50;58.90;;;;;;5090699;28;20409;-72
2023/06/15 10:59:43;;;;;;;7.10;5.00;;;25.80;59.80;;;;;;5091479;28;20077;-72
2023/06/15 11:02:31;;;;;;;14.45;6.03;;;26.00;59.20;;;;;;5091402;28;20023;-72
2023/06/15 11:05:09;;;;;;;6.60;5.25;;;25.80;60.20;;;;;;5080550;28;20114;-72
2023/06/15 11:07:38;;;;;;;10.25;5.63;;;25.30;59.50;;;;;;5090955;28;20491;-72
2023/06/15 11:10:16;;;;;;;6.72;5.40;;;24.90;61.70;;;;;;5090244;28;20060;-72
2023/06/15 11:12:44;;;;;;;7.93;5.53;;;24.50;62.40;;;;;;5090780;28;20552;-71
2023/06/15 11:15:15;;;;;;;8.15;5.38;;;24.30;63.20;;;;;;5090901;28;20422;-72
2023/06/15 11:18:02;;;;;;;6.53;5.10;;;24.20;63.20;;;;;;5090668;28;20028;-72
2023/06/15 11:20:43;;;;;;;8.48;5.13;;;24.30;63.20;;;;;;5090224;28;20028;-72
2023/06/15 11:23:18;;;;;;;7.10;5.20;;;24.40;65.50;;;;;;5090769;28;20059;-72
2023/06/15 11:25:45;;;;;;;6.50;5.00;;;24.80;59.80;;;;;;5090494;28;20048;-72
2023/06/15 11:28:15;;;;;;;6.25;4.82;;;24.80;61.40;;;;;;5091021;28;20024;-72
2023/06/15 11:30:42;;;;;;;7.10;5.03;;;25.00;61.10;;;;;;5090824;28;20028;-73
2023/06/15 11:33:12;;;;;;;5.45;4.60;;;25.20;60.40;;;;;;5089900;28;20036;-71
2023/06/15 11:35:38;;;;;;;5.82;4.75;;;25.80;63.20;;;;;;5090812;28;20040;-72
2023/06/15 11:38:07;;;;;;;8.27;5.40;;;26.00;57.70;;;;;;5089996;28;20106;-72
2023/06/15 11:40:36;;;;;;;8.23;5.30;;;25.60;58.10;;;;;;5090642;28;20020;-72
2023/06/15 11:43:02;;;;;;;5.90;4.75;;;25.20;57.60;;;;;;5090234;28;20633;-72
2023/06/15 11:45:28;;;;;;;8.93;5.20;;;24.90;58.70;;;;;;5090620;28;20047;-71
2023/06/15 11:47:54;;;;;;;7.63;5.32;;;24.60;59.20;;;;;;5089199;28;20485;-72
2023/06/15 11:50:22;;;;;;;8.35;5.55;;;24.70;59.30;;;;;;5090729;28;20027;-72
2023/06/15 11:52:48;;;;;;;7.20;5.18;;;25.20;58.90;;;;;;5089525;28;20067;-72
2023/06/15 11:55:16;;;;;;;6.72;5.28;;;25.40;58.80;;;;;;5090439;28;20477;-72
2023/06/15 11:57:43;;;;;;;8.35;5.38;;;25.80;58.60;;;;;;5089036;28;20069;-72
2023/06/15 12:00:10;;;;;;;7.50;5.80;;;26.10;55.60;;;;;;5089923;28;20046;-72
2023/06/15 12:02:37;;;;;;;7.65;4.90;;;26.50;54.60;;;;;;5090003;28;20077;-72
2023/06/15 12:05:03;;;;;;;7.50;5.20;;;26.70;56.10;;;;;;5089455;28;20491;-72
2023/06/15 12:07:34;;;;;;;8.10;5.03;;;27.10;55.60;;;;;;5090164;28;20110;-72
2023/06/15 12:10:01;;;;;;;10.43;5.05;;;27.40;55.60;;;;;;5089310;28;20459;-72
2023/06/15 12:12:35;;;;;;;10.00;5.70;;;27.80;56.50;;;;;;5090165;28;20106;-72
2023/06/15 12:15:01;;;;;;;6.47;5.20;;;28.20;53.10;;;;;;5089084;28;20046;-72
2023/06/15 12:17:31;;;;;;;6.85;4.97;;;27.90;53.90;;;;;;5090077;28;20036;-72
2023/06/15 12:20:11;;;;;;;8.38;5.28;;;28.10;52.60;;;;;;5088853;28;20802;-72
2023/06/15 12:22:40;;;;;;;8.38;5.38;;;28.00;51.60;;;;;;5090172;28;20070;-72
2023/06/15 12:25:06;;;;;;;12.43;5.38;;;27.70;54.90;;;;;;5088962;28;20040;-72
2023/06/15 12:27:33;;;;;;;5.57;4.80;;;27.60;54.90;;;;;;5089669;28;20798;-72
2023/06/15 12:30:13;;;;;;;6.85;5.30;;;28.10;53.80;;;;;;5088895;28;20027;-72
2023/06/15 12:32:57;;;;;;;5.90;4.82;;;27.90;52.60;;;;;;5089770;28;20028;-72
2023/06/15 12:35:37;;;;;;;7.25;5.15;;;27.50;55.00;;;;;;5089743;28;20444;-72
2023/06/15 12:38:09;;;;;;;5.90;4.80;;;27.20;56.50;;;;;;5088991;28;20034;-70
2023/06/15 12:40:43;;;;;;;6.10;4.85;;;26.80;54.90;;;;;;5089578;28;20028;-72